Time;durP1;ratioP1;P1;durP2;ratioP2;P2;SDS_P1;SDS_P2;PMS_P1;PMS_P2;Temp;Humidity;BMP_temperature;BMP_pressure;BME280_temperature;BME280_humidity;BME280_pressure;Samples;Min_cycle;Max_cycle;Signal;HPM_P1;HPM_P2
2024/01/29 00:00:37;;;;;;;3.10;3.00;;;;;;;;;;5055979;28;20249;-77
2024/01/29 00:03:04;;;;;;;0.20;0.20;;;;;;;;;;5076720;28;20192;-77
2024/01/29 00:05:30;;;;;;;0.20;0.20;;;;;;;;;;5056169;28;20479;-77
2024/01/29 00:07:58;;;;;;;0.20;0.20;;;;;;;;;;5076617;28;20232;-77
2024/01/29 00:10:25;;;;;;;0.20;0.20;;;;;;;;;;5055460;28;20486;-77
2024/01/29 00:12:52;;;;;;;0.20;0.20;;;;;;;;;;5077200;28;20192;-77
2024/01/29 00:15:18;;;;;;;0.20;0.20;;;;;;;;;;5054266;28;20235;-77
2024/01/29 00:17:45;;;;;;;0.20;0.20;;;;;;;;;;5078115;28;20201;-77
2024/01/29 00:20:11;;;;;;;0.20;0.20;;;;;;;;;;5053444;28;20233;-77
2024/01/29 00:22:38;;;;;;;0.20;0.20;;;;;;;;;;5078995;28;20211;-76
2024/01/29 00:25:07;;;;;;;0.20;0.20;;;;;;;;;;5063415;28;20271;-77
2024/01/29 00:27:33;;;;;;;0.20;0.20;;;;;;;;;;5068863;28;20237;-77
2024/01/29 00:30:01;;;;;;;0.30;0.30;;;;;;;;;;5063475;28;20203;-77
2024/01/29 00:32:27;;;;;;;0.20;0.20;;;;;;;;;;5068821;28;20245;-76
2024/01/29 00:34:54;;;;;;;0.20;0.20;;;;;;;;;;5063271;28;20245;-77
2024/01/29 00:37:22;;;;;;;0.20;0.20;;;;;;;;;;5068853;28;20279;-77
2024/01/29 00:39:49;;;;;;;0.30;0.30;;;;;;;;;;5063630;28;20373;-77
2024/01/29 00:42:17;;;;;;;1.03;1.03;;;;;;;;;;5068713;28;20245;-77
2024/01/29 00:44:44;;;;;;;0.23;0.23;;;;;;;;;;5063041;28;20205;-77
2024/01/29 00:47:11;;;;;;;0.20;0.20;;;;;;;;;;5068072;28;20520;-77
2024/01/29 00:49:37;;;;;;;0.20;0.20;;;;;;;;;;5063542;28;20372;-77
2024/01/29 00:52:04;;;;;;;41.80;11.10;;;;;;;;;;5067919;28;20243;-77
2024/01/29 00:54:30;;;;;;;0.20;0.20;;;;;;;;;;5064102;28;20204;-77
2024/01/29 00:56:57;;;;;;;0.20;0.20;;;;;;;;;;5066716;28;20506;-78
2024/01/29 00:59:24;;;;;;;0.20;0.20;;;;;;;;;;5064941;28;20240;-76
2024/01/29 01:01:51;;;;;;;0.20;0.20;;;;;;;;;;5066183;28;20321;-77
2024/01/29 01:04:17;;;;;;;14.60;13.63;;;;;;;;;;5065263;28;20204;-77
2024/01/29 01:06:45;;;;;;;0.20;0.20;;;;;;;;;;5064905;28;20262;-77
2024/01/29 01:09:12;;;;;;;0.20;0.20;;;;;;;;;;5065782;28;20234;-77
2024/01/29 01:11:40;;;;;;;0.20;0.20;;;;;;;;;;5064248;28;20302;-77
2024/01/29 01:14:06;;;;;;;0.20;0.20;;;;;;;;;;5066599;28;20283;-77
2024/01/29 01:16:34;;;;;;;0.20;0.20;;;;;;;;;;5063400;28;20313;-76
2024/01/29 01:19:00;;;;;;;0.20;0.20;;;;;;;;;;5067470;28;20212;-77
2024/01/29 01:21:26;;;;;;;0.20;0.20;;;;;;;;;;5062643;28;20246;-77
2024/01/29 01:23:53;;;;;;;0.20;0.20;;;;;;;;;;5068350;28;20266;-76
2024/01/29 01:26:19;;;;;;;0.20;0.20;;;;;;;;;;5061863;28;20246;-77
2024/01/29 01:28:45;;;;;;;0.20;0.20;;;;;;;;;;5069206;28;20253;-77
2024/01/29 01:31:12;;;;;;;0.20;0.20;;;;;;;;;;5060653;28;20252;-77
2024/01/29 01:33:39;;;;;;;0.23;0.23;;;;;;;;;;5070482;28;20391;-77
2024/01/29 01:36:06;;;;;;;0.20;0.20;;;;;;;;;;5059677;28;20274;-77
2024/01/29 01:38:32;;;;;;;0.20;0.20;;;;;;;;;;5070996;28;20205;-77
2024/01/29 01:40:59;;;;;;;0.20;0.20;;;;;;;;;;5058851;28;20304;-77
2024/01/29 01:43:25;;;;;;;0.20;0.20;;;;;;;;;;5072101;28;20205;-77
2024/01/29 01:46:02;;;;;;;0.20;0.20;;;;;;;;;;5058086;28;20239;-77
2024/01/29 01:48:28;;;;;;;0.20;0.20;;;;;;;;;;5071309;28;20220;-77
2024/01/29 01:50:56;;;;;;;0.20;0.20;;;;;;;;;;5058384;28;20307;-77
2024/01/29 01:53:22;;;;;;;0.23;0.23;;;;;;;;;;5072318;28;20202;-77
2024/01/29 01:55:48;;;;;;;0.30;0.30;;;;;;;;;;5057160;28;20251;-77
2024/01/29 01:58:18;;;;;;;0.30;0.30;;;;;;;;;;5075881;28;20204;-78
2024/01/29 02:00:44;;;;;;;0.20;0.20;;;;;;;;;;5060473;28;20281;-77
2024/01/29 02:03:11;;;;;;;0.27;0.27;;;;;;;;;;5077061;28;20238;-77
2024/01/29 02:05:37;;;;;;;0.20;0.20;;;;;;;;;;5059079;28;20234;-78
2024/01/29 02:08:06;;;;;;;0.20;0.20;;;;;;;;;;5077871;28;20238;-77
2024/01/29 02:10:32;;;;;;;0.20;0.20;;;;;;;;;;5058441;28;20313;-77
2024/01/29 02:12:59;;;;;;;0.37;0.37;;;;;;;;;;5078709;28;20224;-77
2024/01/29 02:15:25;;;;;;;0.20;0.20;;;;;;;;;;5057686;28;20206;-77
2024/01/29 02:17:51;;;;;;;0.20;0.20;;;;;;;;;;5079674;28;20188;-77
2024/01/29 02:20:19;;;;;;;0.20;0.20;;;;;;;;;;5056748;28;20291;-77
2024/01/29 02:22:46;;;;;;;0.20;0.20;;;;;;;;;;5079946;28;20207;-77
2024/01/29 02:25:13;;;;;;;0.67;0.67;;;;;;;;;;5055610;28;20271;-77
2024/01/29 02:27:40;;;;;;;0.20;0.20;;;;;;;;;;5080803;28;20254;-77
2024/01/29 02:30:07;;;;;;;0.20;0.20;;;;;;;;;;5065627;28;20242;-77
2024/01/29 02:32:33;;;;;;;0.20;0.20;;;;;;;;;;5071033;28;20235;-77
2024/01/29 02:34:59;;;;;;;0.30;0.30;;;;;;;;;;5065785;28;20398;-77
2024/01/29 02:37:26;;;;;;;0.20;0.20;;;;;;;;;;5071023;28;20241;-76
2024/01/29 02:39:54;;;;;;;0.30;0.30;;;;;;;;;;5065763;28;20399;-77
2024/01/29 02:42:20;;;;;;;0.30;0.30;;;;;;;;;;5070870;28;20416;-77
2024/01/29 02:44:46;;;;;;;0.20;0.20;;;;;;;;;;5065354;28;20212;-77
2024/01/29 02:47:14;;;;;;;0.20;0.20;;;;;;;;;;5070636;28;20250;-77
2024/01/29 02:49:43;;;;;;;0.20;0.20;;;;;;;;;;5065094;28;20249;-77
2024/01/29 02:52:09;;;;;;;0.30;0.30;;;;;;;;;;5070613;28;20242;-78
2024/01/29 02:54:35;;;;;;;0.30;0.30;;;;;;;;;;5065223;28;20238;-77
2024/01/29 02:57:03;;;;;;;0.20;0.20;;;;;;;;;;5069403;28;20445;-77
2024/01/29 02:59:30;;;;;;;0.20;0.20;;;;;;;;;;5065829;28;20204;-77
2024/01/29 03:01:56;;;;;;;0.20;0.20;;;;;;;;;;5068397;28;20246;-77
2024/01/29 03:04:23;;;;;;;1.70;1.70;;;;;;;;;;5066525;28;20207;-76
2024/01/29 03:06:49;;;;;;;0.20;0.20;;;;;;;;;;5067521;28;20489;-77
2024/01/29 03:09:15;;;;;;;0.20;0.20;;;;;;;;;;5066770;28;20466;-77
2024/01/29 03:11:42;;;;;;;1.03;1.03;;;;;;;;;;5066453;28;20238;-77
2024/01/29 03:14:10;;;;;;;0.20;0.20;;;;;;;;;;5068298;28;20274;-77
2024/01/29 03:16:36;;;;;;;0.20;0.20;;;;;;;;;;5065796;28;20318;-77
2024/01/29 03:19:03;;;;;;;0.30;0.30;;;;;;;;;;5068828;28;20242;-77
2024/01/29 03:21:29;;;;;;;0.20;0.20;;;;;;;;;;5064579;28;20238;-77
2024/01/29 03:23:56;;;;;;;0.23;0.23;;;;;;;;;;5069986;28;20399;-77
2024/01/29 03:26:22;;;;;;;0.30;0.30;;;;;;;;;;5063766;28;20231;-77
2024/01/29 03:28:49;;;;;;;0.20;0.20;;;;;;;;;;5070728;28;20258;-77
2024/01/29 03:31:16;;;;;;;0.30;0.30;;;;;;;;;;5062709;28;20584;-77
2024/01/29 03:33:43;;;;;;;0.20;0.20;;;;;;;;;;5071267;28;20205;-77
2024/01/29 03:36:09;;;;;;;0.20;0.20;;;;;;;;;;5061830;28;20524;-77
2024/01/29 03:38:36;;;;;;;0.20;0.20;;;;;;;;;;5072088;28;20206;-77
2024/01/29 03:41:02;;;;;;;0.20;0.20;;;;;;;;;;5060519;28;20305;-77
2024/01/29 03:43:28;;;;;;;0.20;0.20;;;;;;;;;;5072905;28;20278;-77
2024/01/29 03:45:55;;;;;;;0.20;0.20;;;;;;;;;;5059834;28;20247;-77
2024/01/29 03:48:22;;;;;;;0.20;0.20;;;;;;;;;;5073717;28;20231;-77
2024/01/29 03:50:49;;;;;;;0.20;0.20;;;;;;;;;;5058746;28;20246;-77
2024/01/29 03:53:15;;;;;;;0.20;0.20;;;;;;;;;;5074394;28;20211;-77
2024/01/29 03:55:42;;;;;;;0.20;0.20;;;;;;;;;;5057802;28;20339;-77
2024/01/29 03:58:08;;;;;;;0.20;0.20;;;;;;;;;;5075570;28;20192;-77
2024/01/29 04:00:35;;;;;;;0.93;0.93;;;;;;;;;;5056696;28;20241;-77
2024/01/29 04:03:03;;;;;;;0.20;0.20;;;;;;;;;;5076035;28;20234;-78
2024/01/29 04:05:31;;;;;;;0.20;0.20;;;;;;;;;;5056194;28;20246;-77
2024/01/29 04:07:58;;;;;;;0.30;0.30;;;;;;;;;;5076748;28;20480;-77
2024/01/29 04:10:24;;;;;;;0.20;0.20;;;;;;;;;;5055409;28;20250;-77
2024/01/29 04:12:50;;;;;;;0.20;0.20;;;;;;;;;;5077249;28;20192;-77
2024/01/29 04:15:17;;;;;;;0.20;0.20;;;;;;;;;;5054309;28;20203;-77
2024/01/29 04:17:43;;;;;;;0.27;0.27;;;;;;;;;;5078191;28;20204;-76
2024/01/29 04:20:10;;;;;;;0.20;0.20;;;;;;;;;;5054993;28;20238;-76
2024/01/29 04:22:38;;;;;;;0.20;0.20;;;;;;;;;;5078983;28;20284;-76
2024/01/29 04:25:06;;;;;;;0.57;0.57;;;;;;;;;;5063914;28;20211;-76
2024/01/29 04:27:32;;;;;;;0.20;0.20;;;;;;;;;;5068630;28;20243;-76
2024/01/29 04:30:00;;;;;;;0.20;0.20;;;;;;;;;;5063789;28;20234;-75
2024/01/29 04:32:26;;;;;;;0.20;0.20;;;;;;;;;;5068753;28;20245;-75
2024/01/29 04:34:53;;;;;;;0.20;0.20;;;;;;;;;;5063529;28;20287;-76
2024/01/29 04:37:19;;;;;;;0.20;0.20;;;;;;;;;;5068642;28;20265;-76
2024/01/29 04:39:47;;;;;;;0.27;0.27;;;;;;;;;;5063407;28;20200;-76
2024/01/29 04:42:13;;;;;;;0.20;0.20;;;;;;;;;;5068406;28;20278;-76
2024/01/29 04:44:40;;;;;;;0.30;0.30;;;;;;;;;;5063354;28;20271;-76
2024/01/29 04:47:07;;;;;;;0.30;0.30;;;;;;;;;;5068263;28;20483;-76
2024/01/29 04:49:33;;;;;;;0.20;0.20;;;;;;;;;;5063424;28;20247;-76
2024/01/29 04:52:00;;;;;;;0.40;0.40;;;;;;;;;;5066707;28;20242;-76
2024/01/29 04:54:30;;;;;;;0.30;0.30;;;;;;;;;;5064461;28;20235;-75
2024/01/29 04:56:58;;;;;;;0.20;0.20;;;;;;;;;;5066931;28;20491;-76
2024/01/29 04:59:24;;;;;;;0.83;0.83;;;;;;;;;;5064544;28;20203;-77
2024/01/29 05:01:51;;;;;;;0.20;0.20;;;;;;;;;;5064711;28;20362;-77
2024/01/29 05:04:17;;;;;;;0.20;0.20;;;;;;;;;;5065868;28;20208;-79
2024/01/29 05:06:43;;;;;;;0.20;0.20;;;;;;;;;;5064377;28;20246;-77
2024/01/29 05:09:11;;;;;;;0.30;0.30;;;;;;;;;;5066900;28;20477;-77
2024/01/29 05:11:39;;;;;;;0.20;0.20;;;;;;;;;;5064034;28;20239;-77
2024/01/29 05:14:08;;;;;;;0.27;0.27;;;;;;;;;;5066902;28;20275;-77
2024/01/29 05:16:35;;;;;;;0.20;0.20;;;;;;;;;;5063471;28;20242;-78
2024/01/29 05:19:01;;;;;;;0.23;0.23;;;;;;;;;;5067667;28;20507;-78
2024/01/29 05:21:28;;;;;;;0.30;0.30;;;;;;;;;;5062924;28;20491;-77
2024/01/29 05:23:54;;;;;;;0.30;0.30;;;;;;;;;;5068282;28;20212;-77
2024/01/29 05:26:22;;;;;;;0.20;0.20;;;;;;;;;;5061844;28;20250;-77
2024/01/29 05:28:49;;;;;;;0.23;0.23;;;;;;;;;;5068981;28;20227;-78
2024/01/29 05:31:16;;;;;;;0.23;0.23;;;;;;;;;;5060993;28;20313;-78
2024/01/29 05:33:43;;;;;;;0.23;0.23;;;;;;;;;;5073556;28;20424;-77
2024/01/29 05:36:09;;;;;;;0.20;0.20;;;;;;;;;;5064016;28;20246;-77
2024/01/29 05:38:36;;;;;;;0.20;0.20;;;;;;;;;;5074702;28;20461;-77
2024/01/29 05:41:02;;;;;;;0.20;0.20;;;;;;;;;;5063052;28;20254;-78
2024/01/29 05:43:29;;;;;;;0.30;0.30;;;;;;;;;;5075319;28;20196;-77
2024/01/29 05:45:55;;;;;;;0.30;0.30;;;;;;;;;;5061959;28;20288;-77
2024/01/29 05:48:23;;;;;;;0.20;0.20;;;;;;;;;;5075939;28;20226;-78
2024/01/29 05:50:49;;;;;;;0.20;0.20;;;;;;;;;;5061238;28;20239;-78
2024/01/29 05:53:19;;;;;;;0.30;0.30;;;;;;;;;;5076688;28;20195;-78
2024/01/29 05:55:46;;;;;;;0.30;0.30;;;;;;;;;;5060432;28;20589;-78
2024/01/29 05:58:12;;;;;;;0.30;0.30;;;;;;;;;;5077400;28;20199;-78
2024/01/29 06:00:38;;;;;;;0.20;0.20;;;;;;;;;;5059234;28;20242;-78
2024/01/29 06:03:05;;;;;;;0.23;0.23;;;;;;;;;;5078274;28;20220;-78
2024/01/29 06:05:33;;;;;;;0.30;0.30;;;;;;;;;;5058435;28;20269;-78
2024/01/29 06:07:59;;;;;;;0.20;0.20;;;;;;;;;;5078754;28;20414;-78
2024/01/29 06:10:25;;;;;;;0.30;0.30;;;;;;;;;;5057635;28;20220;-78
2024/01/29 06:12:53;;;;;;;0.20;0.20;;;;;;;;;;5079396;28;20195;-78
2024/01/29 06:15:19;;;;;;;11.13;10.67;;;;;;;;;;5057172;28;20268;-78
2024/01/29 06:17:46;;;;;;;5.17;4.77;;;;;;;;;;5079963;28;20558;-78
2024/01/29 06:20:12;;;;;;;0.27;0.27;;;;;;;;;;5056225;28;20407;-78
2024/01/29 06:22:40;;;;;;;0.20;0.20;;;;;;;;;;5080714;28;20434;-78
2024/01/29 06:25:07;;;;;;;0.20;0.20;;;;;;;;;;5065791;28;20211;-78
2024/01/29 06:27:33;;;;;;;1.43;1.43;;;;;;;;;;5054509;28;20520;-78
2024/01/29 06:30:00;;;;;;;0.20;0.20;;;;;;;;;;5066014;28;20223;-78
2024/01/29 06:32:26;;;;;;;0.20;0.20;;;;;;;;;;5070916;28;20430;-77
2024/01/29 06:34:56;;;;;;;0.27;0.27;;;;;;;;;;5065869;28;20558;-78
2024/01/29 06:37:23;;;;;;;0.20;0.20;;;;;;;;;;5070495;28;20241;-78
2024/01/29 06:39:50;;;;;;;4.63;4.23;;;;;;;;;;5065847;28;20455;-78
2024/01/29 06:42:17;;;;;;;0.20;0.20;;;;;;;;;;5070741;28;20503;-78
2024/01/29 06:44:43;;;;;;;0.20;0.20;;;;;;;;;;5064020;28;20220;-78
2024/01/29 06:47:10;;;;;;;0.20;0.20;;;;;;;;;;5070631;28;20246;-79
2024/01/29 06:49:36;;;;;;;0.20;0.20;;;;;;;;;;5065793;28;20228;-78
2024/01/29 06:52:03;;;;;;;0.27;0.27;;;;;;;;;;5069525;28;20302;-78
2024/01/29 06:54:29;;;;;;;0.50;0.50;;;;;;;;;;5066358;28;20271;-78
2024/01/29 06:56:57;;;;;;;0.20;0.20;;;;;;;;;;5068560;28;20245;-79
2024/01/29 06:59:25;;;;;;;0.20;0.20;;;;;;;;;;5067253;28;20214;-79
2024/01/29 07:01:53;;;;;;;0.20;0.20;;;;;;;;;;5067760;28;20488;-79
2024/01/29 07:04:20;;;;;;;0.20;0.20;;;;;;;;;;5067522;28;20204;-79
2024/01/29 07:06:46;;;;;;;0.20;0.20;;;;;;;;;;5066931;28;20254;-80
2024/01/29 07:09:13;;;;;;;0.30;0.30;;;;;;;;;;5068335;28;20207;-79
2024/01/29 07:11:39;;;;;;;6.07;5.60;;;;;;;;;;5065992;28;20576;-79
2024/01/29 07:14:07;;;;;;;0.20;0.20;;;;;;;;;;5069196;28;20488;-79
2024/01/29 07:16:33;;;;;;;0.27;0.27;;;;;;;;;;5065187;28;20301;-80
2024/01/29 07:19:00;;;;;;;0.20;0.20;;;;;;;;;;5069592;28;20202;-80
2024/01/29 07:21:26;;;;;;;0.20;0.20;;;;;;;;;;5064035;28;20242;-79
2024/01/29 07:23:53;;;;;;;0.20;0.20;;;;;;;;;;5070683;28;20263;-79
2024/01/29 07:26:19;;;;;;;0.20;0.20;;;;;;;;;;5063369;28;20449;-80
2024/01/29 07:28:45;;;;;;;0.20;0.20;;;;;;;;;;5071399;28;20216;-78
2024/01/29 07:31:13;;;;;;;0.30;0.30;;;;;;;;;;5062356;28;20609;-80
2024/01/29 07:33:40;;;;;;;0.27;0.27;;;;;;;;;;5072170;28;20283;-79
2024/01/29 07:36:07;;;;;;;0.27;0.27;;;;;;;;;;5061529;28;20623;-79
2024/01/29 07:38:33;;;;;;;0.27;0.27;;;;;;;;;;5072560;28;20274;-78
2024/01/29 07:41:00;;;;;;;0.20;0.20;;;;;;;;;;5060700;28;20451;-79
2024/01/29 07:43:27;;;;;;;0.20;0.20;;;;;;;;;;5073650;28;20217;-78
2024/01/29 07:45:53;;;;;;;0.30;0.30;;;;;;;;;;5059859;28;20239;-80
2024/01/29 07:48:21;;;;;;;0.20;0.20;;;;;;;;;;5074367;28;20279;-81
2024/01/29 07:50:47;;;;;;;0.27;0.27;;;;;;;;;;5059040;28;20318;-81
2024/01/29 07:53:14;;;;;;;0.20;0.20;;;;;;;;;;5074907;28;20214;-81
2024/01/29 07:55:40;;;;;;;0.20;0.20;;;;;;;;;;5057687;28;20272;-80
2024/01/29 07:58:08;;;;;;;0.20;0.20;;;;;;;;;;5075577;28;20242;-80
2024/01/29 08:00:34;;;;;;;0.20;0.20;;;;;;;;;;5057037;28;20306;-80
2024/01/29 08:03:01;;;;;;;0.20;0.20;;;;;;;;;;5076298;28;20240;-81
2024/01/29 08:05:29;;;;;;;0.50;0.50;;;;;;;;;;5055729;28;20291;-79
2024/01/29 08:07:56;;;;;;;0.20;0.20;;;;;;;;;;5077080;28;20534;-80
2024/01/29 08:10:23;;;;;;;0.30;0.30;;;;;;;;;;5055090;28;20252;-80
2024/01/29 08:12:49;;;;;;;0.50;0.50;;;;;;;;;;5077876;28;20214;-80
2024/01/29 08:15:15;;;;;;;0.20;0.20;;;;;;;;;;5054087;28;20201;-81
2024/01/29 08:17:42;;;;;;;0.20;0.20;;;;;;;;;;5078524;28;20204;-81
2024/01/29 08:20:09;;;;;;;0.20;0.20;;;;;;;;;;5061714;28;20239;-80
2024/01/29 08:22:36;;;;;;;0.20;0.20;;;;;;;;;;5079288;28;20254;-80
2024/01/29 08:25:06;;;;;;;0.20;0.20;;;;;;;;;;5063766;28;20238;-80
2024/01/29 08:27:32;;;;;;;0.20;0.20;;;;;;;;;;5068681;28;20257;-81
2024/01/29 08:29:59;;;;;;;0.20;0.20;;;;;;;;;;5063582;28;20252;-81
2024/01/29 08:32:25;;;;;;;0.20;0.20;;;;;;;;;;5068710;28;20306;-81
2024/01/29 08:34:51;;;;;;;0.20;0.20;;;;;;;;;;5063574;28;20272;-81
2024/01/29 08:37:18;;;;;;;0.20;0.20;;;;;;;;;;5068600;28;20273;-81
2024/01/29 08:39:46;;;;;;;0.20;0.20;;;;;;;;;;5064036;28;20211;-81
2024/01/29 08:42:12;;;;;;;0.20;0.20;;;;;;;;;;5068717;28;20261;-81
2024/01/29 08:44:38;;;;;;;0.20;0.20;;;;;;;;;;5063932;28;20278;-81
2024/01/29 08:47:05;;;;;;;0.20;0.20;;;;;;;;;;5068115;28;20483;-80
2024/01/29 08:49:32;;;;;;;0.20;0.20;;;;;;;;;;5063722;28;20245;-81
2024/01/29 08:51:59;;;;;;;0.20;0.20;;;;;;;;;;5067157;28;20243;-81
2024/01/29 08:54:25;;;;;;;0.20;0.20;;;;;;;;;;5064947;28;20204;-81
2024/01/29 08:56:53;;;;;;;0.20;0.20;;;;;;;;;;5066524;28;20269;-80
2024/01/29 08:59:21;;;;;;;0.10;0.10;;;;;;;;;;5065328;28;20442;-81
2024/01/29 09:01:47;;;;;;;0.10;0.10;;;;;;;;;;5065408;28;20246;-81
2024/01/29 09:04:13;;;;;;;0.10;0.10;;;;;;;;;;5066516;28;20198;-81
2024/01/29 09:06:40;;;;;;;0.10;0.10;;;;;;;;;;5065069;28;20584;-81
2024/01/29 09:09:07;;;;;;;0.10;0.10;;;;;;;;;;5071376;28;20227;-81
2024/01/29 09:11:33;;;;;;;0.10;0.10;;;;;;;;;;5067516;28;20243;-80
2024/01/29 09:14:01;;;;;;;0.10;0.10;;;;;;;;;;5072324;28;20244;-81
2024/01/29 09:16:27;;;;;;;0.40;0.40;;;;;;;;;;5067105;28;20463;-80
2024/01/29 09:18:53;;;;;;;0.10;0.10;;;;;;;;;;5072798;28;20237;-81
2024/01/29 09:21:20;;;;;;;0.10;0.10;;;;;;;;;;5065673;28;20282;-81
2024/01/29 09:23:46;;;;;;;0.10;0.10;;;;;;;;;;5073801;28;20246;-81
2024/01/29 09:26:13;;;;;;;0.10;0.10;;;;;;;;;;5065064;28;20244;-81
2024/01/29 09:28:41;;;;;;;0.10;0.10;;;;;;;;;;5074453;28;20215;-81
2024/01/29 09:31:09;;;;;;;0.10;0.10;;;;;;;;;;5063917;28;20246;-80
2024/01/29 09:33:38;;;;;;;0.10;0.10;;;;;;;;;;5074969;28;20254;-81
2024/01/29 09:36:05;;;;;;;0.10;0.10;;;;;;;;;;5063601;28;20502;-80
2024/01/29 09:38:31;;;;;;;0.10;0.10;;;;;;;;;;5075236;28;20210;-81
2024/01/29 09:40:58;;;;;;;0.10;0.10;;;;;;;;;;5062361;28;20240;-81
2024/01/29 09:43:26;;;;;;;0.10;0.10;;;;;;;;;;5076096;28;20283;-80
2024/01/29 09:45:53;;;;;;;0.10;0.10;;;;;;;;;;5062041;28;20241;-77
2024/01/29 09:48:21;;;;;;;0.10;0.10;;;;;;;;;;5076361;28;20206;-81
2024/01/29 09:50:49;;;;;;;0.10;0.10;;;;;;;;;;5060924;28;20240;-80
2024/01/29 09:53:20;;;;;;;0.10;0.10;;;;;;;;;;5076728;28;20235;-81
2024/01/29 09:55:47;;;;;;;0.10;0.10;;;;;;;;;;5060813;28;20250;-78
2024/01/29 09:58:13;;;;;;;0.10;0.10;;;;;;;;;;5077098;28;20223;-80
2024/01/29 10:00:39;;;;;;;0.03;0.03;;;;;;;;;;5059745;28;20501;-78
2024/01/29 10:03:08;;;;;;;0.10;0.10;;;;;;;;;;5077756;28;20211;-78
2024/01/29 10:05:37;;;;;;;0.10;0.10;;;;;;;;;;5058982;28;20603;-78
2024/01/29 10:08:04;;;;;;;0.10;0.10;;;;;;;;;;5078234;28;20458;-79
2024/01/29 10:10:33;;;;;;;0.10;0.10;;;;;;;;;;5058372;28;20256;-78
2024/01/29 10:13:03;;;;;;;0.10;0.10;;;;;;;;;;5078549;28;20273;-79
2024/01/29 10:15:30;;;;;;;0.10;0.10;;;;;;;;;;5058428;28;20245;-79
2024/01/29 10:17:56;;;;;;;0.10;0.10;;;;;;;;;;5078394;28;20207;-80
2024/01/29 10:20:23;;;;;;;0.10;0.10;;;;;;;;;;5057558;28;20418;-79
2024/01/29 10:22:58;;;;;;;0.10;0.10;;;;;;;;;;5079346;28;20204;-79
2024/01/29 10:25:24;;;;;;;0.10;0.10;;;;;;;;;;5057320;28;20199;-79
2024/01/29 10:27:50;;;;;;;0.10;0.10;;;;;;;;;;5079136;28;20206;-79
2024/01/29 10:30:17;;;;;;;0.10;0.10;;;;;;;;;;5056230;28;20239;-79
2024/01/29 10:32:43;;;;;;;0.10;0.10;;;;;;;;;;5080093;28;20256;-79
2024/01/29 10:35:10;;;;;;;0.10;0.10;;;;;;;;;;5057319;28;20283;-79
2024/01/29 10:37:36;;;;;;;0.10;0.10;;;;;;;;;;5080662;28;20223;-79
2024/01/29 10:40:07;;;;;;;0.10;0.10;;;;;;;;;;5065898;28;20392;-80
2024/01/29 10:42:34;;;;;;;0.10;0.10;;;;;;;;;;5070608;28;20453;-79
2024/01/29 10:45:01;;;;;;;0.10;0.10;;;;;;;;;;5066052;28;20241;-80
2024/01/29 10:47:36;;;;;;;0.10;0.10;;;;;;;;;;5070397;28;20239;-79
2024/01/29 10:50:02;;;;;;;0.10;0.10;;;;;;;;;;5065437;28;20237;-79
2024/01/29 10:52:30;;;;;;;0.10;0.10;;;;;;;;;;5070209;28;20252;-79
2024/01/29 10:54:57;;;;;;;0.10;0.10;;;;;;;;;;5065545;28;20271;-79
2024/01/29 10:57:25;;;;;;;0.10;0.10;;;;;;;;;;5070274;28;20623;-75
2024/01/29 10:59:52;;;;;;;0.10;0.10;;;;;;;;;;5065506;28;20238;-74
2024/01/29 11:02:19;;;;;;;0.10;0.10;;;;;;;;;;5070174;28;20241;-75
2024/01/29 11:04:45;;;;;;;0.10;0.10;;;;;;;;;;5065609;28;20204;-74
2024/01/29 11:07:15;;;;;;;0.10;0.10;;;;;;;;;;5070015;28;20236;-75
2024/01/29 11:09:43;;;;;;;0.10;0.10;;;;;;;;;;5065359;28;20236;-75
2024/01/29 11:12:11;;;;;;;0.10;0.10;;;;;;;;;;5070020;28;20231;-74
2024/01/29 11:14:39;;;;;;;0.10;0.10;;;;;;;;;;5065340;28;20210;-75
2024/01/29 11:17:07;;;;;;;0.10;0.10;;;;;;;;;;5069532;28;20246;-75
2024/01/29 11:19:34;;;;;;;0.05;0.05;;;;;;;;;;5065433;28;20206;-75
2024/01/29 11:22:01;;;;;;;0.10;0.10;;;;;;;;;;5068897;28;20246;-75
2024/01/29 11:24:28;;;;;;;0.10;0.10;;;;;;;;;;5065984;28;20234;-75
2024/01/29 11:27:04;;;;;;;0.10;0.10;;;;;;;;;;5067768;28;20512;-75
2024/01/29 11:29:34;;;;;;;0.10;0.10;;;;;;;;;;5064827;28;20419;-74
2024/01/29 11:32:02;;;;;;;0.10;0.10;;;;;;;;;;5068465;28;20265;-75
2024/01/29 11:34:29;;;;;;;0.10;0.10;;;;;;;;;;5065806;28;20212;-75
2024/01/29 11:36:55;;;;;;;0.00;0.00;;;;;;;;;;5067788;28;20485;-75
2024/01/29 11:39:24;;;;;;;0.10;0.10;;;;;;;;;;5066656;28;20391;-75
2024/01/29 11:41:51;;;;;;;0.03;0.03;;;;;;;;;;5067164;28;20481;-75
2024/01/29 11:44:18;;;;;;;0.10;0.10;;;;;;;;;;5066986;28;20204;-75
2024/01/29 11:46:44;;;;;;;0.10;0.10;;;;;;;;;;5066163;28;20247;-74
2024/01/29 11:49:12;;;;;;;0.10;0.10;;;;;;;;;;5067762;28;20204;-74
2024/01/29 11:51:39;;;;;;;0.10;0.10;;;;;;;;;;5065165;28;20507;-75
2024/01/29 11:54:05;;;;;;;0.10;0.10;;;;;;;;;;5068311;28;20208;-75
2024/01/29 11:56:32;;;;;;;0.10;0.10;;;;;;;;;;5064498;28;20255;-76
2024/01/29 11:58:59;;;;;;;0.00;0.00;;;;;;;;;;5069222;28;20213;-75
2024/01/29 12:01:26;;;;;;;0.00;0.00;;;;;;;;;;5062841;28;20235;-75
2024/01/29 12:03:52;;;;;;;0.00;0.00;;;;;;;;;;5070038;28;20200;-74
2024/01/29 12:06:20;;;;;;;0.00;0.00;;;;;;;;;;5062552;28;20274;-75
2024/01/29 12:08:47;;;;;;;0.00;0.00;;;;;;;;;;5070629;28;20385;-75
2024/01/29 12:11:14;;;;;;;0.10;0.10;;;;;;;;;;5061615;28;20546;-75
2024/01/29 12:13:41;;;;;;;0.00;0.00;;;;;;;;;;5071001;28;20212;-75
2024/01/29 12:16:08;;;;;;;0.00;0.00;;;;;;;;;;5061123;28;20262;-75
2024/01/29 12:18:35;;;;;;;0.00;0.00;;;;;;;;;;5071979;28;20254;-75
2024/01/29 12:21:02;;;;;;;0.10;0.10;;;;;;;;;;5060022;28;20289;-75
2024/01/29 12:23:30;;;;;;;0.10;0.10;;;;;;;;;;5072555;28;20254;-75
2024/01/29 12:25:57;;;;;;;0.00;0.00;;;;;;;;;;5058907;28;20310;-75
2024/01/29 12:28:25;;;;;;;0.00;0.00;;;;;;;;;;5073580;28;20393;-75
2024/01/29 12:30:52;;;;;;;0.00;0.00;;;;;;;;;;5058875;28;20238;-75
2024/01/29 12:33:19;;;;;;;0.10;0.10;;;;;;;;;;5073624;28;20195;-74
2024/01/29 12:35:45;;;;;;;0.10;0.10;;;;;;;;;;5057737;28;20466;-75
2024/01/29 12:38:13;;;;;;;0.10;0.10;;;;;;;;;;5074323;28;20211;-75
2024/01/29 12:40:41;;;;;;;0.00;0.00;;;;;;;;;;5057094;28;20242;-74
2024/01/29 12:43:09;;;;;;;0.10;0.10;;;;;;;;;;5074704;28;20223;-75
2024/01/29 12:45:36;;;;;;;0.10;0.10;;;;;;;;;;5056479;28;20276;-75
2024/01/29 12:48:03;;;;;;;0.10;0.10;;;;;;;;;;5075255;28;20516;-75
2024/01/29 12:50:29;;;;;;;0.10;0.10;;;;;;;;;;5055701;28;20293;-75
2024/01/29 12:52:56;;;;;;;0.10;0.10;;;;;;;;;;5075923;28;20556;-75
2024/01/29 12:55:23;;;;;;;0.10;0.10;;;;;;;;;;5054657;28;20214;-75
2024/01/29 12:57:51;;;;;;;0.10;0.10;;;;;;;;;;5076870;28;20233;-75
2024/01/29 13:00:18;;;;;;;0.10;0.10;;;;;;;;;;5054239;28;20208;-75
2024/01/29 13:02:44;;;;;;;0.10;0.10;;;;;;;;;;5077645;28;20222;-75
2024/01/29 13:05:10;;;;;;;0.10;0.10;;;;;;;;;;5052903;28;20211;-75
2024/01/29 13:07:37;;;;;;;0.10;0.10;;;;;;;;;;5078410;28;20229;-75
2024/01/29 13:10:04;;;;;;;0.10;0.10;;;;;;;;;;5063428;28;20217;-75
2024/01/29 13:12:31;;;;;;;0.10;0.10;;;;;;;;;;5068342;28;20239;-75
2024/01/29 13:14:59;;;;;;;0.10;0.10;;;;;;;;;;5063463;28;20204;-74
2024/01/29 13:17:28;;;;;;;0.10;0.10;;;;;;;;;;5068367;28;20247;-75
2024/01/29 13:19:54;;;;;;;0.10;0.10;;;;;;;;;;5063301;28;20207;-75
2024/01/29 13:22:21;;;;;;;0.10;0.10;;;;;;;;;;5068319;28;20311;-75
2024/01/29 13:24:47;;;;;;;0.05;0.05;;;;;;;;;;5063074;28;20242;-75
2024/01/29 13:27:14;;;;;;;0.10;0.10;;;;;;;;;;5068317;28;20243;-74
2024/01/29 13:29:40;;;;;;;0.10;0.10;;;;;;;;;;5062843;28;20239;-75
2024/01/29 13:32:08;;;;;;;0.10;0.10;;;;;;;;;;5067773;28;20314;-75
2024/01/29 13:34:34;;;;;;;0.10;0.10;;;;;;;;;;5063368;28;20503;-75
2024/01/29 13:37:01;;;;;;;0.10;0.10;;;;;;;;;;5067198;28;20460;-75
2024/01/29 13:39:28;;;;;;;0.10;0.10;;;;;;;;;;5063956;28;20204;-75
2024/01/29 13:41:54;;;;;;;0.10;0.10;;;;;;;;;;5065984;28;20238;-74
2024/01/29 13:44:21;;;;;;;0.10;0.10;;;;;;;;;;5065135;28;20392;-75
2024/01/29 13:46:47;;;;;;;0.10;0.10;;;;;;;;;;5064624;28;20322;-74
2024/01/29 13:49:15;;;;;;;0.10;0.10;;;;;;;;;;5066046;28;20252;-74
2024/01/29 13:51:41;;;;;;;0.10;0.10;;;;;;;;;;5064156;28;20279;-74
2024/01/29 13:54:08;;;;;;;0.10;0.10;;;;;;;;;;5068900;28;20530;-74
2024/01/29 13:56:34;;;;;;;0.10;0.10;;;;;;;;;;5066985;28;20307;-74
2024/01/29 13:59:01;;;;;;;0.10;0.10;;;;;;;;;;5070975;28;20277;-74
2024/01/29 14:01:27;;;;;;;0.08;0.08;;;;;;;;;;5065791;28;20240;-74
2024/01/29 14:03:56;;;;;;;0.10;0.10;;;;;;;;;;5071971;28;20237;-74
2024/01/29 14:06:24;;;;;;;0.10;0.10;;;;;;;;;;5065413;28;20286;-75
2024/01/29 14:08:50;;;;;;;0.10;0.10;;;;;;;;;;5072198;28;20250;-75
2024/01/29 14:11:18;;;;;;;0.10;0.10;;;;;;;;;;5064656;28;20242;-75
2024/01/29 14:13:45;;;;;;;0.05;0.05;;;;;;;;;;5072836;28;20205;-75
2024/01/29 14:16:11;;;;;;;0.00;0.00;;;;;;;;;;5063774;28;20301;-75
2024/01/29 14:18:39;;;;;;;0.10;0.10;;;;;;;;;;5073538;28;20385;-75
2024/01/29 14:21:07;;;;;;;0.10;0.10;;;;;;;;;;5062811;28;20250;-76
2024/01/29 14:23:35;;;;;;;0.10;0.10;;;;;;;;;;5074257;28;20362;-75
2024/01/29 14:26:03;;;;;;;0.10;0.10;;;;;;;;;;5062072;28;20309;-75
2024/01/29 14:28:29;;;;;;;0.10;0.10;;;;;;;;;;5074518;28;20223;-75
2024/01/29 14:30:56;;;;;;;0.10;0.10;;;;;;;;;;5061299;28;20301;-76
2024/01/29 14:33:22;;;;;;;0.10;0.10;;;;;;;;;;5075228;28;20227;-75
2024/01/29 14:35:51;;;;;;;0.10;0.10;;;;;;;;;;5060171;28;20442;-76
2024/01/29 14:38:17;;;;;;;0.10;0.10;;;;;;;;;;5076073;28;20212;-76
2024/01/29 14:40:45;;;;;;;0.10;0.10;;;;;;;;;;5059509;28;20262;-76